sensor_id;sensor_type;location;lat;lon;timestamp;pressure;altitude;pressure_sealevel;temperature;humidity
77003;BME280;65939;50.060;14.288;2023-04-16T00:02:03;96959.97;;;6.11;81.69
77003;BME280;65939;50.060;14.288;2023-04-16T00:04:04;96961.88;;;6.09;82.33
77003;BME280;65939;50.060;14.288;2023-04-16T00:06:05;96960.22;;;6.08;82.16
77003;BME280;65939;50.060;14.288;2023-04-16T00:08:05;96966.38;;;6.07;81.26
77003;BME280;65939;50.060;14.288;2023-04-16T00:10:06;96969.94;;;6.06;81.86
77003;BME280;65939;50.060;14.288;2023-04-16T00:12:07;96965.72;;;6.05;81.64
77003;BME280;65939;50.060;14.288;2023-04-16T00:14:08;96970.19;;;6.03;81.97
77003;BME280;65939;50.060;14.288;2023-04-16T00:16:09;96968.56;;;6.02;81.97
77003;BME280;65939;50.060;14.288;2023-04-16T00:18:10;96966.91;;;6.01;81.57
77003;BME280;65939;50.060;14.288;2023-04-16T00:20:10;96966.09;;;6.00;82.20
77003;BME280;65939;50.060;14.288;2023-04-16T00:22:11;96970.34;;;6.02;82.03
77003;BME280;65939;50.060;14.288;2023-04-16T00:24:12;96969.50;;;6.01;81.58
77003;BME280;65939;50.060;14.288;2023-04-16T00:26:12;96968.56;;;6.02;81.45
77003;BME280;65939;50.060;14.288;2023-04-16T00:28:13;96972.94;;;6.02;81.65
77003;BME280;65939;50.060;14.288;2023-04-16T00:30:14;96965.16;;;6.02;81.37
77003;BME280;65939;50.060;14.288;2023-04-16T00:32:14;96970.34;;;6.02;81.73
77003;BME280;65939;50.060;14.288;2023-04-16T00:34:15;96966.78;;;6.03;82.11
77003;BME280;65939;50.060;14.288;2023-04-16T00:36:16;96964.06;;;6.04;81.68
77003;BME280;65939;50.060;14.288;2023-04-16T00:38:17;96962.16;;;6.06;81.93
77003;BME280;65939;50.060;14.288;2023-04-16T00:40:17;96957.63;;;6.08;81.69
77003;BME280;65939;50.060;14.288;2023-04-16T00:42:18;96961.88;;;6.09;81.56
77003;BME280;65939;50.060;14.288;2023-04-16T00:44:19;96965.97;;;6.12;82.01
77003;BME280;65939;50.060;14.288;2023-04-16T00:46:22;96952.88;;;6.13;81.79
77003;BME280;65939;50.060;14.288;2023-04-16T00:48:23;96961.31;;;6.15;81.44
77003;BME280;65939;50.060;14.288;2023-04-16T00:50:27;96962.97;;;6.16;81.80
77003;BME280;65939;50.060;14.288;2023-04-16T00:52:28;96961.06;;;6.18;81.47
77003;BME280;65939;50.060;14.288;2023-04-16T00:54:30;96957.38;;;6.21;81.86
77003;BME280;65939;50.060;14.288;2023-04-16T00:56:32;96958.88;;;6.23;81.33
77003;BME280;65939;50.060;14.288;2023-04-16T00:58:34;96952.75;;;6.24;81.17
77003;BME280;65939;50.060;14.288;2023-04-16T01:00:35;96956.97;;;6.26;81.13
77003;BME280;65939;50.060;14.288;2023-04-16T01:02:36;96959.44;;;6.27;81.46
77003;BME280;65939;50.060;14.288;2023-04-16T01:04:36;96959.16;;;6.30;80.98
77003;BME280;65939;50.060;14.288;2023-04-16T01:06:37;96951.25;;;6.32;81.74
77003;BME280;65939;50.060;14.288;2023-04-16T01:08:38;96952.88;;;6.33;81.17
77003;BME280;65939;50.060;14.288;2023-04-16T01:10:39;96950.16;;;6.34;81.26
77003;BME280;65939;50.060;14.288;2023-04-16T01:12:40;96956.00;;;6.36;81.60
77003;BME280;65939;50.060;14.288;2023-04-16T01:14:40;96956.69;;;6.38;81.77
77003;BME280;65939;50.060;14.288;2023-04-16T01:16:41;96959.13;;;6.40;81.24
77003;BME280;65939;50.060;14.288;2023-04-16T01:18:42;96965.03;;;6.42;81.67
77003;BME280;65939;50.060;14.288;2023-04-16T01:20:43;96964.06;;;6.43;81.51
77003;BME280;65939;50.060;14.288;2023-04-16T01:22:43;96966.38;;;6.46;81.69
77003;BME280;65939;50.060;14.288;2023-04-16T01:24:44;96968.97;;;6.46;82.02
77003;BME280;65939;50.060;14.288;2023-04-16T01:26:45;96958.59;;;6.46;81.32
77003;BME280;65939;50.060;14.288;2023-04-16T01:28:45;96967.88;;;6.48;80.95
77003;BME280;65939;50.060;14.288;2023-04-16T01:30:46;96972.91;;;6.50;82.13
77003;BME280;65939;50.060;14.288;2023-04-16T01:32:47;96971.97;;;6.51;81.33
77003;BME280;65939;50.060;14.288;2023-04-16T01:34:47;96975.25;;;6.53;81.25
77003;BME280;65939;50.060;14.288;2023-04-16T01:36:48;96974.44;;;6.53;81.58
77003;BME280;65939;50.060;14.288;2023-04-16T01:38:49;96977.16;;;6.51;81.47
77003;BME280;65939;50.060;14.288;2023-04-16T01:40:54;96971.13;;;6.51;82.46
77003;BME280;65939;50.060;14.288;2023-04-16T01:42:55;96969.38;;;6.51;82.17
77003;BME280;65939;50.060;14.288;2023-04-16T01:44:56;96967.47;;;6.53;81.67
77003;BME280;65939;50.060;14.288;2023-04-16T01:46:56;96968.28;;;6.54;82.00
77003;BME280;65939;50.060;14.288;2023-04-16T01:48:57;96968.28;;;6.54;81.71
77003;BME280;65939;50.060;14.288;2023-04-16T01:50:58;96971.97;;;6.51;81.14
77003;BME280;65939;50.060;14.288;2023-04-16T01:52:59;96964.19;;;6.51;81.56
77003;BME280;65939;50.060;14.288;2023-04-16T01:55:01;96973.63;;;6.52;81.05
77003;BME280;65939;50.060;14.288;2023-04-16T01:57:03;96970.06;;;6.53;81.27
77003;BME280;65939;50.060;14.288;2023-04-16T01:59:03;96974.28;;;6.54;81.27
77003;BME280;65939;50.060;14.288;2023-04-16T02:01:04;96967.47;;;6.53;80.65
77003;BME280;65939;50.060;14.288;2023-04-16T02:03:05;96974.44;;;6.53;80.66
77003;BME280;65939;50.060;14.288;2023-04-16T02:05:06;96973.63;;;6.52;81.50
77003;BME280;65939;50.060;14.288;2023-04-16T02:07:07;96977.16;;;6.51;80.40
77003;BME280;65939;50.060;14.288;2023-04-16T02:09:08;96977.28;;;6.50;80.98
77003;BME280;65939;50.060;14.288;2023-04-16T02:11:08;96983.16;;;6.52;80.67
77003;BME280;65939;50.060;14.288;2023-04-16T02:13:09;96983.97;;;6.52;81.48
77003;BME280;65939;50.060;14.288;2023-04-16T02:15:10;96983.28;;;6.50;80.57
77003;BME280;65939;50.060;14.288;2023-04-16T02:17:11;96995.06;;;6.44;81.14
77003;BME280;65939;50.060;14.288;2023-04-16T02:19:12;96987.13;;;6.36;81.43
77003;BME280;65939;50.060;14.288;2023-04-16T02:21:12;97001.47;;;6.31;82.08
77003;BME280;65939;50.060;14.288;2023-04-16T02:23:13;96991.63;;;6.24;81.74
77003;BME280;65939;50.060;14.288;2023-04-16T02:25:17;96996.00;;;6.24;82.80
77003;BME280;65939;50.060;14.288;2023-04-16T02:27:17;96997.88;;;6.22;82.83
77003;BME280;65939;50.060;14.288;2023-04-16T02:29:18;96999.56;;;6.23;81.93
77003;BME280;65939;50.060;14.288;2023-04-16T02:31:19;97002.00;;;6.24;82.47
77003;BME280;65939;50.060;14.288;2023-04-16T02:33:22;96999.25;;;6.26;82.57
77003;BME280;65939;50.060;14.288;2023-04-16T02:35:26;97001.72;;;6.28;82.41
77003;BME280;65939;50.060;14.288;2023-04-16T02:37:27;97006.66;;;6.31;82.46
77003;BME280;65939;50.060;14.288;2023-04-16T02:39:27;97009.09;;;6.32;81.97
77003;BME280;65939;50.060;14.288;2023-04-16T02:41:28;97002.81;;;6.35;82.32
77003;BME280;65939;50.060;14.288;2023-04-16T02:43:29;97006.38;;;6.34;82.11
77003;BME280;65939;50.060;14.288;2023-04-16T02:45:29;97014.00;;;6.35;82.02
77003;BME280;65939;50.060;14.288;2023-04-16T02:47:30;97012.22;;;6.36;82.46
77003;BME280;65939;50.060;14.288;2023-04-16T02:49:31;97016.47;;;6.37;82.27
77003;BME280;65939;50.060;14.288;2023-04-16T02:51:32;97016.31;;;6.38;82.46
77003;BME280;65939;50.060;14.288;2023-04-16T02:53:33;97011.28;;;6.37;82.48
77003;BME280;65939;50.060;14.288;2023-04-16T02:55:33;97013.19;;;6.35;82.57
77003;BME280;65939;50.060;14.288;2023-04-16T02:57:34;97014.00;;;6.35;82.54
77003;BME280;65939;50.060;14.288;2023-04-16T02:59:35;97016.59;;;6.35;82.39
77003;BME280;65939;50.060;14.288;2023-04-16T03:01:36;97018.38;;;6.35;82.62
77003;BME280;65939;50.060;14.288;2023-04-16T03:03:37;97026.41;;;6.32;82.65
77003;BME280;65939;50.060;14.288;2023-04-16T03:05:37;97022.31;;;6.29;82.78
77003;BME280;65939;50.060;14.288;2023-04-16T03:07:38;97027.50;;;6.29;83.20
77003;BME280;65939;50.060;14.288;2023-04-16T03:09:40;97027.75;;;6.26;82.69
77003;BME280;65939;50.060;14.288;2023-04-16T03:11:40;97033.09;;;6.24;82.40
77003;BME280;65939;50.060;14.288;2023-04-16T03:13:41;97028.72;;;6.25;82.70
77003;BME280;65939;50.060;14.288;2023-04-16T03:15:47;97029.53;;;6.26;82.54
77003;BME280;65939;50.060;14.288;2023-04-16T03:17:48;97032.84;;;6.28;82.29
77003;BME280;65939;50.060;14.288;2023-04-16T03:19:49;97030.34;;;6.26;82.14
77003;BME280;65939;50.060;14.288;2023-04-16T03:21:50;97033.78;;;6.27;81.61
77003;BME280;65939;50.060;14.288;2023-04-16T03:23:50;97026.94;;;6.26;82.71
77003;BME280;65939;50.060;14.288;2023-04-16T03:25:53;97027.91;;;6.24;82.30
77003;BME280;65939;50.060;14.288;2023-04-16T03:27:53;97031.59;;;6.22;82.63
77003;BME280;65939;50.060;14.288;2023-04-16T03:29:54;97030.78;;;6.21;82.84
77003;BME280;65939;50.060;14.288;2023-04-16T03:31:55;97034.31;;;6.20;82.92
77003;BME280;65939;50.060;14.288;2023-04-16T03:33:55;97032.69;;;6.19;82.63
77003;BME280;65939;50.060;14.288;2023-04-16T03:35:57;97037.19;;;6.17;82.61
77003;BME280;65939;50.060;14.288;2023-04-16T03:37:58;97039.22;;;6.14;82.86
77003;BME280;65939;50.060;14.288;2023-04-16T03:39:59;97037.72;;;6.11;83.07
77003;BME280;65939;50.060;14.288;2023-04-16T03:41:59;97038.81;;;6.09;83.09
77003;BME280;65939;50.060;14.288;2023-04-16T03:44:01;97039.91;;;6.06;83.35
77003;BME280;65939;50.060;14.288;2023-04-16T03:46:02;97040.97;;;6.04;83.55
77003;BME280;65939;50.060;14.288;2023-04-16T03:48:02;97036.88;;;6.01;83.38
77003;BME280;65939;50.060;14.288;2023-04-16T03:50:03;97031.97;;;5.98;83.38
77003;BME280;65939;50.060;14.288;2023-04-16T03:52:05;97032.25;;;5.95;83.15
77003;BME280;65939;50.060;14.288;2023-04-16T03:54:05;97036.72;;;5.93;84.33
77003;BME280;65939;50.060;14.288;2023-04-16T03:56:06;97031.78;;;5.90;83.61
77003;BME280;65939;50.060;14.288;2023-04-16T03:58:07;97025.78;;;5.89;83.96
77003;BME280;65939;50.060;14.288;2023-04-16T04:00:07;97018.16;;;5.88;84.10
77003;BME280;65939;50.060;14.288;2023-04-16T04:02:08;97019.22;;;5.85;83.92
77003;BME280;65939;50.060;14.288;2023-04-16T04:04:09;97025.63;;;5.81;83.30
77003;BME280;65939;50.060;14.288;2023-04-16T04:06:10;97026.03;;;5.76;84.26
77003;BME280;65939;50.060;14.288;2023-04-16T04:08:10;97032.53;;;5.71;84.46
77003;BME280;65939;50.060;14.288;2023-04-16T04:10:11;97039.75;;;5.67;83.48
77003;BME280;65939;50.060;14.288;2023-04-16T04:12:12;97034.16;;;5.62;84.15
77003;BME280;65939;50.060;14.288;2023-04-16T04:14:13;97046.56;;;5.59;83.47
77003;BME280;65939;50.060;14.288;2023-04-16T04:16:13;97055.41;;;5.56;84.45
77003;BME280;65939;50.060;14.288;2023-04-16T04:18:14;97067.78;;;5.52;83.95
77003;BME280;65939;50.060;14.288;2023-04-16T04:20:15;97076.88;;;5.47;84.12
77003;BME280;65939;50.060;14.288;2023-04-16T04:22:16;97084.22;;;5.42;83.85
77003;BME280;65939;50.060;14.288;2023-04-16T04:24:16;97086.81;;;5.42;84.12
77003;BME280;65939;50.060;14.288;2023-04-16T04:26:17;97092.00;;;5.42;84.72
77003;BME280;65939;50.060;14.288;2023-04-16T04:28:18;97092.00;;;5.42;84.08
77003;BME280;65939;50.060;14.288;2023-04-16T04:30:18;97091.28;;;5.40;84.54
77003;BME280;65939;50.060;14.288;2023-04-16T04:32:19;97100.16;;;5.37;84.78
77003;BME280;65939;50.060;14.288;2023-04-16T04:34:20;97107.22;;;5.35;84.29
77003;BME280;65939;50.060;14.288;2023-04-16T04:36:21;97105.00;;;5.31;85.04
77003;BME280;65939;50.060;14.288;2023-04-16T04:38:22;97114.66;;;5.28;84.34
77003;BME280;65939;50.060;14.288;2023-04-16T04:40:24;97103.63;;;5.26;85.35
77003;BME280;65939;50.060;14.288;2023-04-16T04:42:25;97106.22;;;5.26;84.88
77003;BME280;65939;50.060;14.288;2023-04-16T04:44:26;97106.88;;;5.28;85.07
77003;BME280;65939;50.060;14.288;2023-04-16T04:46:27;97109.38;;;5.30;84.96
77003;BME280;65939;50.060;14.288;2023-04-16T04:48:27;97111.69;;;5.33;85.37
77003;BME280;65939;50.060;14.288;2023-04-16T04:50:28;97106.25;;;5.36;85.66
77003;BME280;65939;50.060;14.288;2023-04-16T04:52:29;97111.88;;;5.41;85.58
77003;BME280;65939;50.060;14.288;2023-04-16T04:54:30;97110.78;;;5.44;85.15
77003;BME280;65939;50.060;14.288;2023-04-16T04:56:31;97118.31;;;5.47;85.11
77003;BME280;65939;50.060;14.288;2023-04-16T04:58:32;97119.97;;;5.48;85.66
77003;BME280;65939;50.060;14.288;2023-04-16T05:00:33;97116.41;;;5.49;85.17
77003;BME280;65939;50.060;14.288;2023-04-16T05:02:34;97118.19;;;5.48;85.59
77003;BME280;65939;50.060;14.288;2023-04-16T05:04:35;97117.38;;;5.48;85.20
77003;BME280;65939;50.060;14.288;2023-04-16T05:06:35;97117.22;;;5.49;85.63
77003;BME280;65939;50.060;14.288;2023-04-16T05:08:36;97121.69;;;5.47;85.36
77003;BME280;65939;50.060;14.288;2023-04-16T05:10:37;97119.25;;;5.46;85.10
77003;BME280;65939;50.060;14.288;2023-04-16T05:12:37;97125.50;;;5.43;85.50
77003;BME280;65939;50.060;14.288;2023-04-16T05:14:39;97129.19;;;5.41;85.68
77003;BME280;65939;50.060;14.288;2023-04-16T05:16:40;97124.94;;;5.40;85.30
77003;BME280;65939;50.060;14.288;2023-04-16T05:18:40;97134.47;;;5.39;85.79
77003;BME280;65939;50.060;14.288;2023-04-16T05:20:41;97129.56;;;5.36;85.73
77003;BME280;65939;50.060;14.288;2023-04-16T05:22:42;97145.91;;;5.37;85.69
77003;BME280;65939;50.060;14.288;2023-04-16T05:24:42;97151.91;;;5.37;85.51
77003;BME280;65939;50.060;14.288;2023-04-16T05:26:43;97147.41;;;5.39;85.24
77003;BME280;65939;50.060;14.288;2023-04-16T05:28:43;97145.66;;;5.40;85.27
77003;BME280;65939;50.060;14.288;2023-04-16T05:30:44;97154.94;;;5.42;85.75
77003;BME280;65939;50.060;14.288;2023-04-16T05:32:45;97151.03;;;5.48;85.38
77003;BME280;65939;50.060;14.288;2023-04-16T05:34:46;97149.00;;;5.51;85.00
77003;BME280;65939;50.060;14.288;2023-04-16T05:36:46;97151.47;;;5.53;85.34
77003;BME280;65939;50.060;14.288;2023-04-16T05:38:47;97155.44;;;5.57;85.46
77003;BME280;65939;50.060;14.288;2023-04-16T05:40:48;97159.41;;;5.61;85.09
77003;BME280;65939;50.060;14.288;2023-04-16T05:42:48;97158.09;;;5.67;84.63
77003;BME280;65939;50.060;14.288;2023-04-16T05:44:49;97160.28;;;5.71;84.82
77003;BME280;65939;50.060;14.288;2023-04-16T05:46:50;97158.13;;;5.76;85.04
77003;BME280;65939;50.060;14.288;2023-04-16T05:48:52;97159.53;;;5.81;84.36
77003;BME280;65939;50.060;14.288;2023-04-16T05:50:52;97160.63;;;5.88;84.58
77003;BME280;65939;50.060;14.288;2023-04-16T05:52:53;97165.31;;;5.94;83.91
77003;BME280;65939;50.060;14.288;2023-04-16T05:54:53;97169.31;;;5.98;84.10
77003;BME280;65939;50.060;14.288;2023-04-16T05:56:54;97167.84;;;6.05;83.69
77003;BME280;65939;50.060;14.288;2023-04-16T05:58:55;97174.97;;;6.13;83.86
77003;BME280;65939;50.060;14.288;2023-04-16T06:00:56;97171.72;;;6.20;83.57
77003;BME280;65939;50.060;14.288;2023-04-16T06:02:57;97171.19;;;6.27;83.77
77003;BME280;65939;50.060;14.288;2023-04-16T06:04:58;97172.31;;;6.34;83.60
77003;BME280;65939;50.060;14.288;2023-04-16T06:06:58;97172.31;;;6.43;83.28
77003;BME280;65939;50.060;14.288;2023-04-16T06:09:00;97166.34;;;6.53;83.00
77003;BME280;65939;50.060;14.288;2023-04-16T06:11:01;97179.91;;;6.66;83.28
77003;BME280;65939;50.060;14.288;2023-04-16T06:13:01;97174.31;;;6.80;82.87
77003;BME280;65939;50.060;14.288;2023-04-16T06:15:03;97180.88;;;6.94;83.34
77003;BME280;65939;50.060;14.288;2023-04-16T06:17:04;97184.72;;;7.09;82.89
77003;BME280;65939;50.060;14.288;2023-04-16T06:19:05;97184.41;;;7.22;82.81
77003;BME280;65939;50.060;14.288;2023-04-16T06:21:05;97189.34;;;7.35;82.60
77003;BME280;65939;50.060;14.288;2023-04-16T06:23:06;97184.00;;;7.46;82.35
77003;BME280;65939;50.060;14.288;2023-04-16T06:25:07;97188.09;;;7.58;81.20
77003;BME280;65939;50.060;14.288;2023-04-16T06:27:08;97193.78;;;7.72;81.22
77003;BME280;65939;50.060;14.288;2023-04-16T06:29:09;97190.22;;;7.82;80.53
77003;BME280;65939;50.060;14.288;2023-04-16T06:31:11;97185.69;;;7.94;80.82
77003;BME280;65939;50.060;14.288;2023-04-16T06:33:11;97182.63;;;8.08;80.54
77003;BME280;65939;50.060;14.288;2023-04-16T06:35:12;97186.41;;;8.24;80.03
77003;BME280;65939;50.060;14.288;2023-04-16T06:37:13;97188.16;;;8.33;79.58
77003;BME280;65939;50.060;14.288;2023-04-16T06:39:13;97190.72;;;8.43;80.08
77003;BME280;65939;50.060;14.288;2023-04-16T06:41:14;97177.94;;;8.49;79.56
77003;BME280;65939;50.060;14.288;2023-04-16T06:43:15;97184.50;;;8.53;79.69
77003;BME280;65939;50.060;14.288;2023-04-16T06:45:17;97181.31;;;8.59;79.54
77003;BME280;65939;50.060;14.288;2023-04-16T06:47:18;97185.66;;;8.69;78.84
77003;BME280;65939;50.060;14.288;2023-04-16T06:49:18;97187.28;;;8.70;78.48
77003;BME280;65939;50.060;14.288;2023-04-16T06:51:19;97188.84;;;8.62;78.07
77003;BME280;65939;50.060;14.288;2023-04-16T06:53:20;97194.31;;;8.59;78.62
77003;BME280;65939;50.060;14.288;2023-04-16T06:55:20;97188.16;;;8.60;78.80
77003;BME280;65939;50.060;14.288;2023-04-16T06:57:21;97190.88;;;8.69;78.80
77003;BME280;65939;50.060;14.288;2023-04-16T06:59:22;97184.94;;;8.76;79.40
77003;BME280;65939;50.060;14.288;2023-04-16T07:01:23;97189.38;;;8.84;78.52
77003;BME280;65939;50.060;14.288;2023-04-16T07:03:24;97198.41;;;8.90;78.11
77003;BME280;65939;50.060;14.288;2023-04-16T07:05:25;97196.00;;;8.96;77.64
77003;BME280;65939;50.060;14.288;2023-04-16T07:07:26;97193.94;;;9.00;77.77
77003;BME280;65939;50.060;14.288;2023-04-16T07:09:27;97200.50;;;9.04;77.67
77003;BME280;65939;50.060;14.288;2023-04-16T07:11:27;97200.34;;;9.05;77.80
77003;BME280;65939;50.060;14.288;2023-04-16T07:13:28;97206.88;;;9.09;77.48
77003;BME280;65939;50.060;14.288;2023-04-16T07:15:29;97208.38;;;9.12;77.67
77003;BME280;65939;50.060;14.288;2023-04-16T07:17:30;97206.66;;;9.21;77.14
77003;BME280;65939;50.060;14.288;2023-04-16T07:19:31;97203.63;;;9.25;77.60
77003;BME280;65939;50.060;14.288;2023-04-16T07:21:32;97204.81;;;9.31;77.25
77003;BME280;65939;50.060;14.288;2023-04-16T07:23:33;97211.06;;;9.38;76.96
77003;BME280;65939;50.060;14.288;2023-04-16T07:25:33;97219.31;;;9.51;77.36
77003;BME280;65939;50.060;14.288;2023-04-16T07:27:34;97224.97;;;9.65;77.50
77003;BME280;65939;50.060;14.288;2023-04-16T07:29:34;97217.78;;;9.67;76.27
77003;BME280;65939;50.060;14.288;2023-04-16T07:31:35;97222.72;;;9.70;76.09
77003;BME280;65939;50.060;14.288;2023-04-16T07:33:36;97218.38;;;9.78;75.47
77003;BME280;65939;50.060;14.288;2023-04-16T07:35:37;97224.94;;;9.82;75.14
77003;BME280;65939;50.060;14.288;2023-04-16T07:37:37;97231.00;;;9.91;75.59
77003;BME280;65939;50.060;14.288;2023-04-16T07:39:38;97236.66;;;10.04;74.63
77003;BME280;65939;50.060;14.288;2023-04-16T07:41:39;97231.16;;;10.16;74.79
77003;BME280;65939;50.060;14.288;2023-04-16T07:43:40;97227.66;;;10.25;74.74
77003;BME280;65939;50.060;14.288;2023-04-16T07:45:41;97233.94;;;10.40;74.74
77003;BME280;65939;50.060;14.288;2023-04-16T07:47:42;97233.47;;;10.45;73.29
77003;BME280;65939;50.060;14.288;2023-04-16T07:49:42;97228.09;;;10.46;72.30
77003;BME280;65939;50.060;14.288;2023-04-16T07:51:43;97241.66;;;10.50;72.34
77003;BME280;65939;50.060;14.288;2023-04-16T07:53:44;97233.97;;;10.48;72.78
77003;BME280;65939;50.060;14.288;2023-04-16T07:55:45;97244.09;;;10.51;71.58
77003;BME280;65939;50.060;14.288;2023-04-16T07:57:46;97240.50;;;10.52;71.16
77003;BME280;65939;50.060;14.288;2023-04-16T07:59:47;97245.13;;;10.59;71.59
77003;BME280;65939;50.060;14.288;2023-04-16T08:01:47;97245.13;;;10.59;71.10
77003;BME280;65939;50.060;14.288;2023-04-16T08:03:48;97252.31;;;10.57;71.18
77003;BME280;65939;50.060;14.288;2023-04-16T08:05:49;97249.81;;;10.55;71.63
77003;BME280;65939;50.060;14.288;2023-04-16T08:07:50;97255.06;;;10.63;71.68
77003;BME280;65939;50.060;14.288;2023-04-16T08:09:51;97247.94;;;10.73;71.01
77003;BME280;65939;50.060;14.288;2023-04-16T08:11:52;97249.44;;;10.84;71.54
77003;BME280;65939;50.060;14.288;2023-04-16T08:13:53;97253.56;;;10.95;71.02
77003;BME280;65939;50.060;14.288;2023-04-16T08:15:54;97252.44;;;11.06;70.26
77003;BME280;65939;50.060;14.288;2023-04-16T08:17:54;97257.88;;;11.12;70.13
77003;BME280;65939;50.060;14.288;2023-04-16T08:19:55;97262.59;;;11.17;70.11
77003;BME280;65939;50.060;14.288;2023-04-16T08:21:56;97262.63;;;11.25;70.89
77003;BME280;65939;50.060;14.288;2023-04-16T08:23:56;97258.41;;;11.32;70.37
77003;BME280;65939;50.060;14.288;2023-04-16T08:25:57;97256.13;;;11.45;69.53
77003;BME280;65939;50.060;14.288;2023-04-16T08:27:58;97268.91;;;11.57;69.32
77003;BME280;65939;50.060;14.288;2023-04-16T08:29:58;97265.16;;;11.67;69.80
77003;BME280;65939;50.060;14.288;2023-04-16T08:31:59;97264.00;;;11.78;68.28
77003;BME280;65939;50.060;14.288;2023-04-16T08:34:00;97260.41;;;11.87;68.23
77003;BME280;65939;50.060;14.288;2023-04-16T08:36:01;97266.63;;;12.03;68.68
77003;BME280;65939;50.060;14.288;2023-04-16T08:38:02;97267.25;;;12.21;70.07
77003;BME280;65939;50.060;14.288;2023-04-16T08:40:04;97265.06;;;12.41;69.80
77003;BME280;65939;50.060;14.288;2023-04-16T08:42:12;97266.66;;;12.58;68.37
77003;BME280;65939;50.060;14.288;2023-04-16T08:44:19;97264.66;;;12.68;67.09
77003;BME280;65939;50.060;14.288;2023-04-16T08:46:23;97262.53;;;12.72;67.14
77003;BME280;65939;50.060;14.288;2023-04-16T08:48:31;97266.63;;;12.75;66.66
77003;BME280;65939;50.060;14.288;2023-04-16T08:50:32;97270.72;;;12.77;67.35
77003;BME280;65939;50.060;14.288;2023-04-16T08:52:37;97271.81;;;12.83;67.20
77003;BME280;65939;50.060;14.288;2023-04-16T08:54:51;97272.63;;;12.83;66.10
77003;BME280;65939;50.060;14.288;2023-04-16T08:56:57;97275.28;;;12.75;65.08
77003;BME280;65939;50.060;14.288;2023-04-16T08:58:59;97275.00;;;12.70;66.11
77003;BME280;65939;50.060;14.288;2023-04-16T09:01:05;97280.00;;;12.80;66.98
77003;BME280;65939;50.060;14.288;2023-04-16T09:03:08;97268.31;;;12.99;65.62
77003;BME280;65939;50.060;14.288;2023-04-16T09:05:14;97273.81;;;13.12;65.75
77003;BME280;65939;50.060;14.288;2023-04-16T09:07:20;97276.03;;;13.23;64.27
77003;BME280;65939;50.060;14.288;2023-04-16T09:09:22;97279.63;;;13.30;65.57
77003;BME280;65939;50.060;14.288;2023-04-16T09:11:24;97279.81;;;13.29;64.50
77003;BME280;65939;50.060;14.288;2023-04-16T09:13:25;97285.09;;;13.12;65.42
77003;BME280;65939;50.060;14.288;2023-04-16T09:15:26;97284.63;;;13.09;65.56
77003;BME280;65939;50.060;14.288;2023-04-16T09:17:27;97288.84;;;13.18;66.04
77003;BME280;65939;50.060;14.288;2023-04-16T09:19:28;97286.88;;;13.28;66.34
77003;BME280;65939;50.060;14.288;2023-04-16T09:21:28;97285.41;;;13.26;66.56
77003;BME280;65939;50.060;14.288;2023-04-16T09:23:29;97298.81;;;13.23;66.28
77003;BME280;65939;50.060;14.288;2023-04-16T09:25:33;97291.31;;;13.28;65.65
77003;BME280;65939;50.060;14.288;2023-04-16T09:27:35;97295.38;;;13.22;65.01
77003;BME280;65939;50.060;14.288;2023-04-16T09:29:39;97298.34;;;13.19;65.55
77003;BME280;65939;50.060;14.288;2023-04-16T09:31:40;97301.50;;;13.14;65.10
77003;BME280;65939;50.060;14.288;2023-04-16T09:33:41;97303.84;;;13.01;64.52
77003;BME280;65939;50.060;14.288;2023-04-16T09:35:46;97296.84;;;12.93;66.51
77003;BME280;65939;50.060;14.288;2023-04-16T09:37:56;97297.16;;;12.90;66.42
77003;BME280;65939;50.060;14.288;2023-04-16T09:40:02;97297.88;;;12.84;65.84
77003;BME280;65939;50.060;14.288;2023-04-16T09:42:05;97300.97;;;12.80;64.92
77003;BME280;65939;50.060;14.288;2023-04-16T09:44:05;97303.78;;;12.78;64.97
77003;BME280;65939;50.060;14.288;2023-04-16T09:46:10;97301.31;;;12.85;66.52
77003;BME280;65939;50.060;14.288;2023-04-16T09:48:11;97302.41;;;12.99;66.02
77003;BME280;65939;50.060;14.288;2023-04-16T09:50:17;97312.50;;;13.10;65.65
77003;BME280;65939;50.060;14.288;2023-04-16T09:52:21;97304.63;;;13.10;65.42
77003;BME280;65939;50.060;14.288;2023-04-16T09:54:22;97297.72;;;13.17;65.13
77003;BME280;65939;50.060;14.288;2023-04-16T09:56:24;97306.38;;;13.26;65.50
77003;BME280;65939;50.060;14.288;2023-04-16T09:58:29;97306.03;;;13.29;64.90
77003;BME280;65939;50.060;14.288;2023-04-16T10:00:30;97302.41;;;13.30;64.60
77003;BME280;65939;50.060;14.288;2023-04-16T10:02:31;97306.22;;;13.19;65.32
77003;BME280;65939;50.060;14.288;2023-04-16T10:04:50;97309.22;;;13.08;64.87
77003;BME280;65939;50.060;14.288;2023-04-16T10:07:02;97313.69;;;12.99;65.01
77003;BME280;65939;50.060;14.288;2023-04-16T10:09:07;97308.28;;;13.01;65.24
77003;BME280;65939;50.060;14.288;2023-04-16T10:11:08;97310.50;;;13.12;66.28
77003;BME280;65939;50.060;14.288;2023-04-16T10:13:10;97304.59;;;13.18;65.02
77003;BME280;65939;50.060;14.288;2023-04-16T10:15:12;97312.44;;;13.18;65.26
77003;BME280;65939;50.060;14.288;2023-04-16T10:17:12;97313.25;;;13.27;65.67
77003;BME280;65939;50.060;14.288;2023-04-16T10:19:14;97317.81;;;13.33;65.21
77003;BME280;65939;50.060;14.288;2023-04-16T10:21:15;97315.97;;;13.41;65.19
77003;BME280;65939;50.060;14.288;2023-04-16T10:23:18;97323.44;;;13.53;64.91
77003;BME280;65939;50.060;14.288;2023-04-16T10:25:20;97315.88;;;13.58;64.71
77003;BME280;65939;50.060;14.288;2023-04-16T10:27:21;97317.16;;;13.62;65.00
77003;BME280;65939;50.060;14.288;2023-04-16T10:29:23;97318.16;;;13.61;64.29
77003;BME280;65939;50.060;14.288;2023-04-16T10:31:26;97311.41;;;13.67;63.49
77003;BME280;65939;50.060;14.288;2023-04-16T10:33:30;97308.16;;;13.79;64.24
77003;BME280;65939;50.060;14.288;2023-04-16T10:35:35;97317.63;;;13.88;64.06
77003;BME280;65939;50.060;14.288;2023-04-16T10:37:39;97312.72;;;13.85;63.46
77003;BME280;65939;50.060;14.288;2023-04-16T10:39:40;97310.56;;;13.89;63.06
77003;BME280;65939;50.060;14.288;2023-04-16T10:41:41;97311.88;;;14.08;63.75